Terminal Aerodrome Forecast
Issued by NWS

Home | Current Version | Previous Version | Text Only | Print | Product List | Glossary On
Versions: 1 2 3 4 5 6 7 8 9 10 11 12 13 14 15 16 17 18 19 20 21 22 23 24 25 26 27 28 29 30 31 32
000
FTUS42 KGSP 301400 AAB
TAFHKY
TAF AMD
KHKY 301423Z 3014/3112 02005KT 6SM BR OVC007
     FM301500 04005KT P6SM BKN010
     FM301600 15005KT P6SM SCT040
     FM310200 00000KT P6SM BKN045
     FM311000 00000KT 5SM BR BKN045=

USA.gov is the U.S. government's official web portal to all federal, state and local government web resources and services.